createdAt,value
2022-08-30T00:02:26.631Z,0.50
2022-08-30T00:04:54.422Z,0.60
2022-08-30T00:07:21.984Z,0.50
2022-08-30T00:09:49.013Z,0.40
2022-08-30T00:12:16.047Z,0.57
2022-08-30T00:14:43.102Z,0.50
2022-08-30T00:17:10.122Z,0.60
2022-08-30T00:19:38.050Z,0.70
2022-08-30T00:22:07.150Z,0.47
2022-08-30T00:24:34.623Z,0.50
2022-08-30T00:27:01.641Z,0.47
2022-08-30T00:29:28.597Z,0.50
2022-08-30T00:31:55.736Z,0.40
2022-08-30T00:34:22.918Z,0.50
2022-08-30T00:36:49.869Z,0.50
2022-08-30T00:39:16.868Z,0.70
2022-08-30T00:41:44.949Z,0.60
2022-08-30T00:44:12.047Z,0.50
2022-08-30T00:46:39.198Z,0.50
2022-08-30T00:49:08.996Z,0.50
2022-08-30T00:51:36.202Z,0.45
2022-08-30T00:54:04.672Z,0.40
2022-08-30T00:56:33.404Z,0.50
2022-08-30T00:59:02.973Z,0.45
2022-08-30T01:01:32.128Z,0.50
2022-08-30T01:04:02.359Z,0.50
2022-08-30T01:06:32.634Z,0.70
2022-08-30T01:09:01.659Z,1.00
2022-08-30T01:11:29.238Z,0.80
2022-08-30T01:13:56.585Z,0.70
2022-08-30T01:16:25.467Z,0.57
2022-08-30T01:18:57.981Z,0.73
2022-08-30T01:21:35.489Z,0.60
2022-08-30T01:24:04.584Z,0.63
2022-08-30T01:26:33.120Z,0.77
2022-08-30T01:29:05.665Z,0.60
2022-08-30T01:31:37.101Z,0.60
2022-08-30T01:34:05.376Z,0.60
2022-08-30T01:36:32.855Z,0.50
2022-08-30T01:39:01.193Z,0.50
2022-08-30T01:41:32.198Z,0.40
2022-08-30T01:44:02.947Z,0.68
2022-08-30T01:46:36.361Z,0.55
2022-08-30T01:49:07.284Z,0.40
2022-08-30T01:51:34.754Z,0.57
2022-08-30T01:54:02.038Z,0.60
2022-08-30T01:56:31.049Z,0.52
2022-08-30T01:59:02.648Z,0.47
2022-08-30T02:01:37.059Z,0.68
2022-08-30T02:04:05.742Z,0.50
2022-08-30T02:06:33.170Z,0.50
2022-08-30T02:09:00.668Z,0.70
2022-08-30T02:11:27.791Z,0.40
2022-08-30T02:13:54.844Z,0.45
2022-08-30T02:16:23.801Z,0.50
2022-08-30T02:18:53.056Z,0.50
2022-08-30T02:21:20.725Z,0.40
2022-08-30T02:23:47.899Z,0.40
2022-08-30T02:26:15.767Z,0.57
2022-08-30T02:28:50.164Z,0.32
2022-08-30T02:31:19.494Z,0.55
2022-08-30T02:33:50.342Z,0.40
2022-08-30T02:36:18.034Z,0.50
2022-08-30T02:38:45.296Z,0.40
2022-08-30T02:41:12.466Z,0.70
2022-08-30T02:43:39.655Z,0.50
2022-08-30T02:46:06.824Z,0.65
2022-08-30T02:48:34.239Z,0.52
2022-08-30T02:51:07.151Z,0.60
2022-08-30T02:53:39.797Z,0.32
2022-08-30T02:56:07.941Z,0.60
2022-08-30T02:58:35.173Z,0.60
2022-08-30T03:01:02.451Z,0.50
2022-08-30T03:03:29.687Z,0.50
2022-08-30T03:05:56.754Z,0.68
2022-08-30T03:08:24.572Z,0.50
2022-08-30T03:10:52.203Z,0.52
2022-08-30T03:13:19.342Z,0.60
2022-08-30T03:15:46.332Z,0.55
2022-08-30T03:18:13.337Z,0.50
2022-08-30T03:20:44.017Z,0.57
2022-08-30T03:23:21.613Z,0.50
2022-08-30T03:25:49.143Z,0.50
2022-08-30T03:28:16.171Z,0.75
2022-08-30T03:30:43.259Z,0.50
2022-08-30T03:33:11.423Z,0.80
2022-08-30T03:35:38.711Z,0.70
2022-08-30T03:38:06.480Z,0.60
2022-08-30T03:40:33.628Z,0.60
2022-08-30T03:43:01.161Z,0.70
2022-08-30T03:45:28.515Z,0.80
2022-08-30T03:47:55.597Z,0.63
2022-08-30T03:50:22.881Z,0.50
2022-08-30T03:52:50.117Z,0.60
2022-08-30T03:55:17.502Z,0.60
2022-08-30T03:57:44.786Z,0.60
2022-08-30T04:00:12.922Z,0.68
2022-08-30T04:02:40.525Z,0.50
2022-08-30T04:05:09.094Z,0.60
2022-08-30T04:07:36.705Z,0.55
2022-08-30T04:10:06.372Z,0.50
2022-08-30T04:12:33.497Z,0.50
2022-08-30T04:15:00.547Z,0.68
2022-08-30T04:17:27.664Z,0.80
2022-08-30T04:19:54.831Z,0.40
2022-08-30T04:22:22.116Z,0.60
2022-08-30T04:24:49.348Z,0.50
2022-08-30T04:27:20.233Z,0.70
2022-08-30T04:29:47.963Z,0.63
2022-08-30T04:32:15.530Z,0.63
2022-08-30T04:34:42.698Z,0.50
2022-08-30T04:37:09.952Z,0.60
2022-08-30T04:39:37.287Z,0.50
2022-08-30T04:42:04.645Z,0.40
2022-08-30T04:44:32.771Z,0.75
2022-08-30T04:47:00.517Z,0.60
2022-08-30T04:49:27.702Z,0.40
2022-08-30T04:51:55.428Z,0.40
2022-08-30T04:54:23.705Z,0.75
2022-08-30T04:56:50.769Z,0.43
2022-08-30T04:59:18.039Z,0.68
2022-08-30T05:01:46.105Z,0.50
2022-08-30T05:04:14.694Z,0.43
2022-08-30T05:06:42.261Z,0.50
2022-08-30T05:09:09.538Z,0.40
2022-08-30T05:11:37.847Z,0.60
2022-08-30T05:14:05.405Z,0.52
2022-08-30T05:16:32.508Z,0.50
2022-08-30T05:18:59.542Z,0.73
2022-08-30T05:21:28.103Z,0.32
2022-08-30T05:24:02.781Z,0.50
2022-08-30T05:26:34.939Z,0.57
2022-08-30T05:29:02.149Z,0.82
2022-08-30T05:31:33.183Z,0.52
2022-08-30T05:34:01.924Z,0.60
2022-08-30T05:36:31.198Z,0.50
2022-08-30T05:38:58.581Z,0.70
2022-08-30T05:41:27.153Z,0.50
2022-08-30T05:44:00.153Z,0.73
2022-08-30T05:46:29.814Z,0.50
2022-08-30T05:48:57.564Z,0.60
2022-08-30T05:51:27.511Z,0.40
2022-08-30T05:53:56.467Z,0.60
2022-08-30T05:56:27.375Z,0.32
2022-08-30T05:58:55.233Z,0.52
2022-08-30T06:01:28.684Z,0.52
2022-08-30T06:04:01.637Z,0.60
2022-08-30T06:06:33.309Z,0.95
2022-08-30T06:09:00.390Z,0.60
2022-08-30T06:11:28.503Z,0.60
2022-08-30T06:13:56.329Z,0.40
2022-08-30T06:16:26.017Z,0.40
2022-08-30T06:18:54.995Z,0.50
2022-08-30T06:21:25.843Z,0.55
2022-08-30T06:23:53.079Z,0.50
2022-08-30T06:26:20.652Z,0.40
2022-08-30T06:28:48.658Z,0.50
2022-08-30T06:31:17.810Z,0.63
2022-08-30T06:33:45.071Z,0.50
2022-08-30T06:36:25.208Z,0.40
2022-08-30T06:38:54.856Z,0.50
2022-08-30T06:41:24.997Z,0.50
2022-08-30T06:43:52.094Z,0.40
2022-08-30T06:46:32.832Z,0.32
2022-08-30T06:49:00.792Z,0.52
2022-08-30T06:51:34.999Z,0.75
2022-08-30T06:54:03.759Z,0.50
2022-08-30T06:56:32.384Z,0.45
2022-08-30T06:58:59.692Z,0.20
2022-08-30T07:01:28.686Z,0.45
2022-08-30T07:03:56.712Z,0.50
2022-08-30T07:06:24.950Z,0.40
2022-08-30T07:08:56.489Z,0.40
2022-08-30T07:11:42.235Z,0.32
2022-08-30T07:14:09.508Z,0.50
2022-08-30T07:16:36.881Z,0.50
2022-08-30T07:19:05.792Z,0.40
2022-08-30T07:21:36.862Z,0.20
2022-08-30T07:24:05.418Z,0.20
2022-08-30T07:26:38.987Z,0.40
2022-08-30T07:29:06.361Z,0.45
2022-08-30T07:31:36.096Z,0.30
2022-08-30T07:34:04.933Z,0.30
2022-08-30T07:36:32.445Z,0.30
2022-08-30T07:38:59.590Z,0.30
2022-08-30T07:41:31.014Z,0.20
2022-08-30T07:43:58.252Z,0.30
2022-08-30T07:46:28.051Z,0.20
2022-08-30T07:48:56.054Z,0.22
2022-08-30T07:51:26.381Z,0.25
2022-08-30T07:53:55.329Z,0.43
2022-08-30T07:56:23.507Z,0.30
2022-08-30T07:58:51.835Z,0.30
2022-08-30T08:01:21.374Z,0.30
2022-08-30T08:03:50.509Z,0.20
2022-08-30T08:06:20.246Z,0.40
2022-08-30T08:08:48.153Z,0.30
2022-08-30T08:11:18.571Z,0.20
2022-08-30T08:13:54.147Z,0.22
2022-08-30T08:16:23.971Z,0.35
2022-08-30T08:18:51.788Z,0.30
2022-08-30T08:21:20.503Z,0.50
2022-08-30T08:23:47.579Z,0.20
2022-08-30T08:26:14.721Z,0.30
2022-08-30T08:28:42.010Z,0.20
2022-08-30T08:31:21.277Z,0.20
2022-08-30T08:33:52.038Z,0.40
2022-08-30T08:36:19.071Z,0.20
2022-08-30T08:38:46.162Z,0.35
2022-08-30T08:41:32.429Z,0.20
2022-08-30T08:44:00.083Z,0.30
2022-08-30T08:46:56.607Z,0.30
2022-08-30T08:49:23.804Z,0.32
2022-08-30T08:52:09.813Z,0.17
2022-08-30T08:54:46.836Z,0.20
2022-08-30T08:57:16.579Z,0.10
2022-08-30T08:59:45.697Z,0.20
2022-08-30T09:02:28.603Z,0.45
2022-08-30T09:05:00.743Z,0.10
2022-08-30T09:07:36.011Z,0.00
2022-08-30T09:10:04.463Z,0.15
2022-08-30T09:12:31.547Z,0.20
2022-08-30T09:15:10.592Z,0.20
2022-08-30T09:17:57.844Z,0.15
2022-08-30T09:20:32.214Z,0.20
2022-08-30T09:23:19.827Z,0.10
2022-08-30T09:25:52.010Z,0.20
2022-08-30T09:28:24.419Z,0.20
2022-08-30T09:31:24.207Z,0.15
2022-08-30T09:34:04.070Z,0.10
2022-08-30T09:36:41.839Z,0.22
2022-08-30T09:39:31.439Z,0.30
2022-08-30T09:42:19.637Z,0.10
2022-08-30T09:44:46.748Z,0.17
2022-08-30T09:47:31.520Z,0.30
2022-08-30T09:50:21.393Z,0.30
2022-08-30T09:56:20.641Z,0.25
2022-08-30T09:58:53.835Z,0.20
2022-08-30T10:01:45.766Z,0.10
2022-08-30T10:04:22.805Z,0.30
2022-08-30T10:06:51.600Z,0.40
2022-08-30T10:09:39.344Z,0.10
2022-08-30T10:12:25.699Z,0.20
2022-08-30T10:15:15.406Z,0.30
2022-08-30T10:18:19.464Z,0.20
2022-08-30T10:21:15.506Z,0.30
2022-08-30T10:23:51.663Z,0.20
2022-08-30T10:26:30.743Z,0.17
2022-08-30T10:29:11.665Z,0.20
2022-08-30T10:31:52.323Z,0.28
2022-08-30T10:34:40.939Z,0.30
2022-08-30T10:37:31.843Z,0.20
2022-08-30T10:40:30.131Z,0.50
2022-08-30T10:43:01.304Z,0.52
2022-08-30T10:45:33.598Z,0.47
2022-08-30T10:48:05.248Z,0.50
2022-08-30T10:50:41.531Z,0.32
2022-08-30T10:53:22.937Z,0.40
2022-08-30T10:55:55.089Z,0.45
2022-08-30T10:58:22.985Z,0.68
2022-08-30T11:01:12.652Z,0.80
2022-08-30T11:04:17.778Z,0.50
2022-08-30T11:07:10.256Z,0.50
2022-08-30T11:10:15.051Z,0.43
2022-08-30T11:13:04.758Z,0.55
2022-08-30T11:15:36.287Z,0.47
2022-08-30T11:18:14.592Z,0.40
2022-08-30T11:20:45.970Z,0.73
2022-08-30T11:23:19.222Z,0.63
2022-08-30T11:25:58.067Z,0.82
2022-08-30T11:28:37.672Z,0.60
2022-08-30T11:31:23.737Z,0.60
2022-08-30T11:33:57.685Z,0.50
2022-08-30T11:36:28.942Z,0.40
2022-08-30T11:39:51.176Z,0.52
2022-08-30T11:42:32.639Z,0.45
2022-08-30T11:45:28.119Z,0.40
2022-08-30T11:47:59.643Z,0.40
2022-08-30T11:50:43.423Z,0.43
2022-08-30T11:53:25.568Z,0.57
2022-08-30T11:55:57.620Z,0.50
2022-08-30T11:59:04.997Z,0.40
2022-08-30T12:01:51.687Z,0.50
2022-08-30T12:04:23.002Z,0.47
2022-08-30T12:06:52.563Z,0.40
2022-08-30T12:09:25.652Z,0.35
2022-08-30T12:12:04.194Z,0.57
2022-08-30T12:14:40.886Z,0.50
2022-08-30T12:18:00.916Z,0.32
2022-08-30T12:20:47.271Z,0.47
2022-08-30T12:23:44.381Z,0.45
2022-08-30T12:26:25.848Z,0.32
2022-08-30T12:29:24.489Z,0.20
2022-08-30T12:32:18.359Z,0.30
2022-08-30T12:34:45.334Z,0.30
2022-08-30T12:37:36.783Z,0.30
2022-08-30T12:40:09.114Z,0.43
2022-08-30T12:42:42.360Z,0.45
2022-08-30T12:45:15.790Z,0.38
2022-08-30T12:48:03.671Z,0.20
2022-08-30T12:50:52.089Z,0.30
2022-08-30T12:53:39.428Z,0.20
2022-08-30T12:56:21.221Z,0.30
2022-08-30T12:59:02.260Z,0.55
2022-08-30T13:01:31.236Z,0.20
2022-08-30T13:04:21.269Z,0.20
2022-08-30T13:06:59.762Z,0.30
2022-08-30T13:09:32.388Z,0.40
2022-08-30T13:12:01.969Z,0.40
2022-08-30T13:14:34.817Z,1.00
2022-08-30T13:17:24.623Z,0.43
2022-08-30T13:20:13.052Z,0.60
2022-08-30T13:23:00.422Z,0.50
2022-08-30T13:25:28.968Z,0.40
2022-08-30T13:27:56.304Z,0.70
2022-08-30T13:30:24.987Z,0.38
2022-08-30T13:32:53.346Z,0.60
2022-08-30T13:35:20.577Z,0.30
2022-08-30T13:37:51.515Z,0.60
2022-08-30T13:40:20.600Z,0.60
2022-08-30T13:42:48.452Z,0.80
2022-08-30T13:48:06.023Z,0.77
2022-08-30T13:50:33.587Z,1.05
2022-08-30T13:53:00.838Z,0.68
2022-08-30T13:55:28.474Z,0.80
2022-08-30T13:57:56.724Z,0.80
2022-08-30T14:00:26.216Z,0.85
2022-08-30T14:02:57.557Z,0.55
2022-08-30T14:11:09.814Z,0.73
2022-08-30T14:13:37.362Z,0.93
2022-08-30T14:18:54.543Z,0.70
2022-08-30T14:21:24.684Z,0.60
2022-08-30T14:23:53.457Z,0.63
2022-08-30T14:26:24.672Z,0.60
2022-08-30T14:28:53.517Z,0.85
2022-08-30T14:31:20.847Z,0.43
2022-08-30T14:33:49.351Z,0.90
2022-08-30T14:36:17.196Z,0.80
2022-08-30T14:38:44.653Z,0.80
2022-08-30T14:41:11.926Z,0.70
2022-08-30T14:43:41.234Z,0.60
2022-08-30T14:46:09.326Z,0.77
2022-08-30T14:48:38.371Z,0.70
2022-08-30T14:51:13.742Z,0.80
2022-08-30T14:53:41.011Z,0.63
2022-08-30T14:56:10.940Z,0.88
2022-08-30T14:58:38.530Z,0.60
2022-08-30T15:01:10.329Z,0.68
2022-08-30T15:03:40.800Z,0.50
2022-08-30T15:06:09.381Z,0.73
2022-08-30T15:08:38.530Z,0.80
2022-08-30T15:11:11.914Z,0.60
2022-08-30T15:13:40.267Z,0.73
2022-08-30T15:16:16.796Z,0.50
2022-08-30T15:18:44.140Z,0.90
2022-08-30T15:21:11.549Z,0.55
2022-08-30T15:23:39.476Z,0.70
2022-08-30T15:26:08.222Z,0.52
2022-08-30T15:28:37.216Z,0.60
2022-08-30T15:31:08.707Z,0.60
2022-08-30T15:33:37.589Z,0.50
2022-08-30T15:36:06.220Z,0.30
2022-08-30T15:38:33.471Z,0.38
2022-08-30T15:41:04.339Z,0.68
2022-08-30T15:43:32.036Z,0.63
2022-08-30T15:46:22.881Z,0.52
2022-08-30T15:48:52.693Z,0.52
2022-08-30T15:51:20.251Z,0.50
2022-08-30T15:53:48.537Z,0.50
2022-08-30T15:56:15.860Z,0.70
2022-08-30T15:58:44.668Z,0.40
2022-08-30T16:01:12.857Z,0.80
2022-08-30T16:03:41.604Z,0.77
2022-08-30T16:06:17.999Z,0.38
2022-08-30T16:08:46.264Z,0.60
2022-08-30T16:11:15.804Z,0.50
2022-08-30T16:13:46.917Z,0.55
2022-08-30T16:16:18.142Z,0.65
2022-08-30T16:18:46.430Z,0.60
2022-08-30T16:21:24.981Z,0.60
2022-08-30T16:23:55.489Z,0.50
2022-08-30T16:26:23.358Z,0.50
2022-08-30T16:28:50.662Z,0.85
2022-08-30T16:31:19.071Z,0.50
2022-08-30T16:33:47.250Z,0.60
2022-08-30T16:36:21.227Z,0.70
2022-08-30T16:38:49.666Z,0.60
2022-08-30T16:41:22.646Z,0.73
2022-08-30T16:43:53.210Z,0.50
2022-08-30T16:46:27.345Z,0.80
2022-08-30T16:48:58.036Z,0.73
2022-08-30T16:51:28.035Z,0.70
2022-08-30T16:53:56.801Z,0.80
2022-08-30T16:56:26.527Z,0.82
2022-08-30T16:59:01.394Z,0.77
2022-08-30T17:01:34.907Z,0.65
2022-08-30T17:04:05.956Z,0.60
2022-08-30T17:06:33.075Z,0.70
2022-08-30T17:09:03.782Z,0.90
2022-08-30T17:11:33.010Z,1.00
2022-08-30T17:14:00.203Z,0.80
2022-08-30T17:16:30.272Z,0.90
2022-08-30T17:19:00.800Z,1.10
2022-08-30T17:21:31.834Z,0.95
2022-08-30T17:24:02.322Z,0.60
2022-08-30T17:26:34.705Z,0.65
2022-08-30T17:29:02.855Z,0.70
2022-08-30T17:31:31.114Z,0.75
2022-08-30T17:34:03.768Z,1.17
2022-08-30T17:36:36.494Z,0.80
2022-08-30T17:39:10.644Z,0.90
2022-08-30T17:41:45.184Z,0.90
2022-08-30T17:44:18.802Z,1.02
2022-08-30T17:46:46.047Z,0.95
2022-08-30T17:49:13.207Z,1.05
2022-08-30T17:51:42.588Z,1.10
2022-08-30T17:54:12.790Z,1.10
2022-08-30T17:56:41.548Z,0.88
2022-08-30T17:59:14.470Z,1.33
2022-08-30T18:01:43.544Z,1.70
2022-08-30T18:04:12.676Z,1.27
2022-08-30T18:06:40.283Z,1.52
2022-08-30T18:09:09.039Z,1.35
2022-08-30T18:11:41.792Z,1.20
2022-08-30T18:14:10.827Z,1.17
2022-08-30T18:16:39.371Z,0.88
2022-08-30T18:19:17.471Z,1.20
2022-08-30T18:21:44.547Z,1.00
2022-08-30T18:24:12.762Z,1.10
2022-08-30T18:26:43.056Z,1.10
2022-08-30T18:29:11.044Z,0.98
2022-08-30T18:31:39.190Z,1.15
2022-08-30T18:34:12.521Z,1.25
2022-08-30T18:36:40.499Z,1.10
2022-08-30T18:39:09.237Z,1.30
2022-08-30T18:41:43.080Z,1.30
2022-08-30T18:44:27.287Z,1.50
2022-08-30T18:46:57.109Z,1.00
2022-08-30T18:49:26.396Z,1.58
2022-08-30T18:51:54.118Z,1.33
2022-08-30T18:54:21.298Z,1.40
2022-08-30T18:56:48.603Z,1.50
2022-08-30T18:59:16.388Z,1.80
2022-08-30T19:01:44.172Z,1.75
2022-08-30T19:04:22.439Z,1.98
2022-08-30T19:06:57.285Z,1.70
2022-08-30T19:09:24.631Z,1.70
2022-08-30T19:11:54.615Z,2.55
2022-08-30T19:14:21.759Z,2.40
2022-08-30T19:16:49.044Z,2.33
2022-08-30T19:19:16.149Z,2.08
2022-08-30T19:21:43.174Z,1.85
2022-08-30T19:24:11.853Z,1.75
2022-08-30T19:26:39.378Z,1.58
2022-08-30T19:29:07.417Z,1.30
2022-08-30T19:31:35.477Z,1.45
2022-08-30T19:34:02.661Z,1.70
2022-08-30T19:36:30.689Z,1.70
2022-08-30T19:38:57.980Z,1.55
2022-08-30T19:41:26.851Z,1.50
2022-08-30T19:43:54.051Z,1.52
2022-08-30T19:46:21.217Z,1.67
2022-08-30T19:48:48.331Z,1.58
2022-08-30T19:51:15.734Z,1.90
2022-08-30T19:53:44.063Z,1.60
2022-08-30T19:56:11.336Z,1.27
2022-08-30T19:58:38.594Z,1.48
2022-08-30T20:01:11.766Z,1.50
2022-08-30T20:03:40.498Z,1.65
2022-08-30T20:06:08.950Z,1.77
2022-08-30T20:08:36.752Z,1.70
2022-08-30T20:11:04.787Z,1.70
2022-08-30T20:13:33.722Z,1.50
2022-08-30T20:16:01.787Z,1.50
2022-08-30T20:18:29.131Z,1.70
2022-08-30T20:20:57.171Z,1.30
2022-08-30T20:23:25.303Z,1.38
2022-08-30T20:25:54.566Z,1.45
2022-08-30T20:28:22.119Z,1.50
2022-08-30T20:30:49.716Z,1.33
2022-08-30T20:33:17.856Z,1.35
2022-08-30T20:35:49.106Z,1.13
2022-08-30T20:38:21.678Z,1.13
2022-08-30T20:40:52.894Z,1.30
2022-08-30T20:43:22.269Z,1.10
2022-08-30T20:45:49.356Z,1.05
2022-08-30T20:48:17.570Z,1.20
2022-08-30T20:50:44.782Z,1.40
2022-08-30T20:53:12.722Z,1.20
2022-08-30T20:55:44.944Z,1.30
2022-08-30T20:58:12.987Z,1.20
2022-08-30T21:00:40.627Z,1.10
2022-08-30T21:03:27.344Z,1.30
2022-08-30T21:05:56.011Z,1.17
2022-08-30T21:08:23.189Z,1.10
2022-08-30T21:10:50.245Z,1.08
2022-08-30T21:13:17.528Z,1.17
2022-08-30T21:15:46.144Z,1.20
2022-08-30T21:18:14.692Z,1.00
2022-08-30T21:20:42.394Z,1.40
2022-08-30T21:23:09.726Z,1.00
2022-08-30T21:25:43.862Z,1.20
2022-08-30T21:28:10.956Z,1.35
2022-08-30T21:30:38.237Z,1.40
2022-08-30T21:33:07.029Z,1.10
2022-08-30T21:35:53.445Z,1.10
2022-08-30T21:38:20.627Z,1.02
2022-08-30T21:40:48.917Z,1.13
2022-08-30T21:43:16.328Z,1.20
2022-08-30T21:45:44.917Z,1.10
2022-08-30T21:48:13.459Z,1.20
2022-08-30T21:50:42.385Z,1.20
2022-08-30T21:53:10.167Z,1.10
2022-08-30T21:55:37.321Z,0.90
2022-08-30T21:58:04.546Z,1.10
2022-08-30T22:00:33.087Z,1.10
2022-08-30T22:03:00.211Z,1.20
2022-08-30T22:05:27.296Z,1.48
2022-08-30T22:07:54.808Z,1.45
2022-08-30T22:10:21.857Z,1.00
2022-08-30T22:12:48.990Z,1.13
2022-08-30T22:15:16.375Z,0.90
2022-08-30T22:17:43.882Z,1.15
2022-08-30T22:20:12.048Z,1.30
2022-08-30T22:22:46.056Z,1.20
2022-08-30T22:25:13.378Z,1.35
2022-08-30T22:27:40.615Z,1.33
2022-08-30T22:30:08.039Z,1.30
2022-08-30T22:32:35.899Z,0.98
2022-08-30T22:35:03.093Z,1.40
2022-08-30T22:37:31.869Z,1.20
2022-08-30T22:39:58.954Z,1.10
2022-08-30T22:42:26.090Z,1.25
2022-08-30T22:44:53.122Z,0.93
2022-08-30T22:47:20.147Z,1.50
2022-08-30T22:49:47.161Z,1.30
2022-08-30T22:52:14.537Z,1.40
2022-08-30T22:54:41.584Z,1.33
2022-08-30T22:57:09.372Z,1.15
2022-08-30T22:59:36.388Z,1.02
2022-08-30T23:02:03.608Z,1.10
2022-08-30T23:04:31.552Z,1.15
2022-08-30T23:06:58.637Z,1.20
2022-08-30T23:09:25.822Z,1.63
2022-08-30T23:11:53.065Z,1.13
2022-08-30T23:14:20.618Z,1.40
2022-08-30T23:16:48.074Z,1.45
2022-08-30T23:19:16.732Z,1.33
2022-08-30T23:21:44.049Z,1.13
2022-08-30T23:24:29.619Z,1.23
2022-08-30T23:27:15.150Z,1.20
2022-08-30T23:30:00.762Z,1.35
2022-08-30T23:32:46.435Z,1.45
2022-08-30T23:35:32.703Z,1.30
2022-08-30T23:38:21.290Z,1.30
2022-08-30T23:41:06.742Z,1.40
2022-08-30T23:43:52.234Z,1.45
2022-08-30T23:46:39.967Z,1.48
2022-08-30T23:49:25.609Z,1.40
2022-08-30T23:52:11.414Z,1.40
2022-08-30T23:54:57.639Z,1.55
2022-08-30T23:57:44.998Z,1.77
